PWSweather.com
Personal Weather Stations
Station Observations
KMAMEDFI2
Medfield, MA 02052

Medfield, MA 02052

Lat: 42.1900822, Lon: -71.3296889

Elevation: 138

Station Type: Rainwise WS MK-III

http://www.medfieldweather.com

Latest ConditionsUpdated 9:20:00 AM EDT Friday, Oct 24, 2014
Currently Today's Max Today's Min Today's Average
Temperature 50.4°F10.2°C 50.4°F10.2°C 49.2°F9.6°C 49.6°F9.8°C
Dew Point 49.6°F9.8°C 49.6°F9.8°C 48.4°F9.1°C 48.7°F9.3°C
Winds 2.7 mph W4.3 kmh W 3.7 mph W6.0 kmh W - 2.3 mph 3.7 kmh
Wind Gusts 7.8 mph12.6 kmh 13.0 mph20.9 kmh - -
Humidity 97% 97% 97% 97%
Pressure 29.66 in1004.4 mb 29.66 in1004.4 mb 29.61 in1002.7 mb -
Precipitation - 0.08 in2.0 mm - -
Hour Temp Dew Point Humidity Winds Wind Gusts Pressure Precip Precip Rate Daily Precip Total
09:20 AM 50.4°F10.2°C 49.6°F9.8°C 97% 2.7 mph W4.3 kmh W 7.8 mph12.6 kmh 29.66 in1004.4 mb 0.00 in0.0 mm 0.00 in/hr0.0 mm/hr 0.08 in2.0 mm
09:10 AM 50.4°F10.2°C 49.5°F9.7°C 97% 1.9 mph NW3.1 kmh NW 3.9 mph6.3 kmh 29.66 in1004.4 mb 0.00 in0.0 mm 0.00 in/hr0.0 mm/hr 0.08 in2.0 mm
09:00 AM 50.4°F10.2°C 49.6°F9.8°C 97% 2.3 mph W3.7 kmh W 5.2 mph8.4 kmh 29.66 in1004.4 mb 0.00 in0.0 mm 0.00 in/hr0.0 mm/hr 0.08 in2.0 mm
08:50 AM 50.3°F10.2°C 49.4°F9.7°C 97% 1.8 mph NNW2.9 kmh NNW 3.9 mph6.3 kmh 29.66 in1004.4 mb 0.00 in0.0 mm 0.00 in/hr0.0 mm/hr 0.08 in2.0 mm
08:40 AM 50.0°F10.0°C 49.2°F9.6°C 97% 2.2 mph WSW3.5 kmh WSW 5.2 mph8.4 kmh 29.66 in1004.4 mb 0.00 in0.0 mm 0.00 in/hr0.0 mm/hr 0.08 in2.0 mm
08:30 AM 49.9°F9.9°C 49.1°F9.5°C 97% 2.6 mph WSW4.2 kmh WSW 5.2 mph8.4 kmh 29.66 in1004.4 mb 0.01 in0.3 mm 0.06 in/hr1.5 mm/hr 0.08 in2.0 mm
08:20 AM 49.7°F9.8°C 48.9°F9.4°C 97% 1.6 mph WNW2.6 kmh WNW 5.2 mph8.4 kmh 29.65 in1004.1 mb 0.00 in0.0 mm 0.00 in/hr0.0 mm/hr 0.07 in1.8 mm
08:10 AM 49.6°F9.8°C 48.8°F9.3°C 97% 0.8 mph WSW1.3 kmh WSW 5.2 mph8.4 kmh 29.65 in1004.1 mb 0.00 in0.0 mm 0.00 in/hr0.0 mm/hr 0.07 in1.8 mm
08:00 AM 49.5°F9.7°C 48.7°F9.3°C 97% 1.9 mph WSW3.1 kmh WSW 2.6 mph4.2 kmh 29.65 in1004.1 mb 0.00 in0.0 mm 0.00 in/hr0.0 mm/hr 0.07 in1.8 mm
07:50 AM 49.4°F9.7°C 48.6°F9.2°C 97% 0.9 mph N1.4 kmh N 2.6 mph4.2 kmh 29.64 in1003.7 mb 0.00 in0.0 mm 0.00 in/hr0.0 mm/hr 0.07 in1.8 mm
07:40 AM 49.4°F9.7°C 48.6°F9.2°C 97% 1.3 mph WSW2.1 kmh WSW 2.6 mph4.2 kmh 29.64 in1003.7 mb 0.00 in0.0 mm 0.00 in/hr0.0 mm/hr 0.07 in1.8 mm
07:30 AM 49.4°F9.7°C 48.6°F9.2°C 97% 1.3 mph NE2.1 kmh NE 5.2 mph8.4 kmh 29.64 in1003.7 mb 0.00 in0.0 mm 0.00 in/hr0.0 mm/hr 0.07 in1.8 mm
07:20 AM 49.4°F9.7°C 48.6°F9.2°C 97% 1.7 mph SW2.7 kmh SW 3.9 mph6.3 kmh 29.64 in1003.7 mb 0.00 in0.0 mm 0.00 in/hr0.0 mm/hr 0.07 in1.8 mm
07:10 AM 49.4°F9.7°C 48.6°F9.2°C 97% 2.2 mph S3.5 kmh S 5.2 mph8.4 kmh 29.64 in1003.7 mb 0.01 in0.3 mm 0.06 in/hr1.5 mm/hr 0.07 in1.8 mm
07:00 AM 49.5°F9.7°C 48.7°F9.3°C 97% 2.0 mph SW3.2 kmh SW 5.2 mph8.4 kmh 29.64 in1003.7 mb 0.00 in0.0 mm 0.00 in/hr0.0 mm/hr 0.06 in1.5 mm
06:50 AM 49.5°F9.7°C 48.7°F9.3°C 97% 2.1 mph NE3.4 kmh NE 5.2 mph8.4 kmh 29.64 in1003.7 mb 0.00 in0.0 mm 0.00 in/hr0.0 mm/hr 0.06 in1.5 mm
06:40 AM 49.5°F9.7°C 48.7°F9.3°C 97% 2.0 mph NW3.2 kmh NW 5.2 mph8.4 kmh 29.63 in1003.4 mb 0.00 in0.0 mm 0.00 in/hr0.0 mm/hr 0.06 in1.5 mm
06:30 AM 49.6°F9.8°C 48.7°F9.3°C 97% 1.8 mph S2.9 kmh S 6.5 mph10.5 kmh 29.63 in1003.4 mb 0.00 in0.0 mm 0.00 in/hr0.0 mm/hr 0.06 in1.5 mm
06:20 AM 49.6°F9.8°C 48.8°F9.3°C 97% 1.9 mph NNW3.1 kmh NNW 7.8 mph12.6 kmh 29.63 in1003.4 mb 0.00 in0.0 mm 0.00 in/hr0.0 mm/hr 0.06 in1.5 mm
06:10 AM 49.6°F9.8°C 48.8°F9.3°C 97% 3.3 mph WNW5.3 kmh WNW 13.0 mph20.9 kmh 29.63 in1003.4 mb 0.00 in0.0 mm 0.00 in/hr0.0 mm/hr 0.06 in1.5 mm
06:00 AM 49.5°F9.7°C 48.7°F9.3°C 97% 2.5 mph SW4.0 kmh SW 5.2 mph8.4 kmh 29.63 in1003.4 mb 0.00 in0.0 mm 0.00 in/hr0.0 mm/hr 0.06 in1.5 mm
05:50 AM 49.5°F9.7°C 48.7°F9.3°C 97% 3.0 mph WNW4.8 kmh WNW 9.1 mph14.6 kmh 29.63 in1003.4 mb 0.00 in0.0 mm 0.00 in/hr0.0 mm/hr 0.06 in1.5 mm
05:40 AM 49.5°F9.7°C 48.7°F9.3°C 97% 2.2 mph SW3.5 kmh SW 6.5 mph10.5 kmh 29.63 in1003.4 mb 0.00 in0.0 mm 0.00 in/hr0.0 mm/hr 0.06 in1.5 mm
05:30 AM 49.4°F9.7°C 48.6°F9.2°C 97% 2.7 mph ESE4.3 kmh ESE 5.2 mph8.4 kmh 29.62 in1003.0 mb 0.00 in0.0 mm 0.00 in/hr0.0 mm/hr 0.06 in1.5 mm
05:20 AM 49.4°F9.7°C 48.6°F9.2°C 97% 2.7 mph SW4.3 kmh SW 7.8 mph12.6 kmh 29.63 in1003.4 mb 0.00 in0.0 mm 0.00 in/hr0.0 mm/hr 0.06 in1.5 mm
05:10 AM 49.4°F9.7°C 48.6°F9.2°C 97% 2.3 mph W3.7 kmh W 7.8 mph12.6 kmh 29.63 in1003.4 mb 0.00 in0.0 mm 0.00 in/hr0.0 mm/hr 0.06 in1.5 mm
05:00 AM 49.4°F9.7°C 48.6°F9.2°C 97% 2.2 mph SW3.5 kmh SW 5.2 mph8.4 kmh 29.63 in1003.4 mb 0.00 in0.0 mm 0.00 in/hr0.0 mm/hr 0.06 in1.5 mm
04:50 AM 49.4°F9.7°C 48.6°F9.2°C 97% 3.5 mph WNW5.6 kmh WNW 9.1 mph14.6 kmh 29.62 in1003.0 mb 0.00 in0.0 mm 0.00 in/hr0.0 mm/hr 0.06 in1.5 mm
04:30 AM 49.3°F9.6°C 48.5°F9.2°C 97% 3.0 mph WSW4.8 kmh WSW 5.2 mph8.4 kmh 29.62 in1003.0 mb 0.01 in0.3 mm 0.06 in/hr1.5 mm/hr 0.06 in1.5 mm
04:20 AM 49.3°F9.6°C 48.5°F9.2°C 97% 1.9 mph SE3.1 kmh SE 5.2 mph8.4 kmh 29.61 in1002.7 mb 0.00 in0.0 mm 0.00 in/hr0.0 mm/hr 0.05 in1.3 mm
04:00 AM 49.2°F9.6°C 48.4°F9.1°C 97% 1.8 mph SW2.9 kmh SW 6.5 mph10.5 kmh 29.61 in1002.7 mb 0.00 in0.0 mm 0.00 in/hr0.0 mm/hr 0.05 in1.3 mm
03:50 AM 49.2°F9.6°C 48.4°F9.1°C 97% 3.0 mph SW4.8 kmh SW 3.9 mph6.3 kmh 29.61 in1002.7 mb 0.00 in0.0 mm 0.00 in/hr0.0 mm/hr 0.05 in1.3 mm
03:40 AM 49.2°F9.6°C 48.4°F9.1°C 97% 2.5 mph W4.0 kmh W 7.8 mph12.6 kmh 29.61 in1002.7 mb 0.00 in0.0 mm 0.00 in/hr0.0 mm/hr 0.05 in1.3 mm
03:20 AM 49.2°F9.6°C 48.4°F9.1°C 97% 1.9 mph NE3.1 kmh NE 2.6 mph4.2 kmh 29.61 in1002.7 mb 0.00 in0.0 mm 0.00 in/hr0.0 mm/hr 0.05 in1.3 mm
03:10 AM 49.2°F9.6°C 48.4°F9.1°C 97% 3.7 mph W6.0 kmh W 9.1 mph14.6 kmh 29.61 in1002.7 mb 0.01 in0.3 mm 0.06 in/hr1.5 mm/hr 0.05 in1.3 mm
03:00 AM 49.2°F9.6°C 48.4°F9.1°C 97% 2.9 mph NW4.7 kmh NW 7.8 mph12.6 kmh 29.62 in1003.0 mb 0.00 in0.0 mm 0.00 in/hr0.0 mm/hr 0.04 in1.0 mm
02:50 AM 49.3°F9.6°C 48.5°F9.2°C 97% 2.0 mph WNW3.2 kmh WNW 6.5 mph10.5 kmh 29.62 in1003.0 mb 0.01 in0.3 mm 0.06 in/hr1.5 mm/hr 0.04 in1.0 mm
02:40 AM 49.3°F9.6°C 48.5°F9.2°C 97% 1.8 mph N2.9 kmh N 6.5 mph10.5 kmh 29.63 in1003.4 mb 0.00 in0.0 mm 0.00 in/hr0.0 mm/hr 0.03 in0.8 mm
02:30 AM 49.4°F9.7°C 48.5°F9.2°C 97% 2.3 mph NE3.7 kmh NE 5.2 mph8.4 kmh 29.63 in1003.4 mb 0.00 in0.0 mm 0.00 in/hr0.0 mm/hr 0.03 in0.8 mm
02:20 AM 49.3°F9.6°C 48.5°F9.2°C 97% 2.1 mph SSE3.4 kmh SSE 5.2 mph8.4 kmh 29.63 in1003.4 mb 0.01 in0.3 mm 0.06 in/hr1.5 mm/hr 0.03 in0.8 mm
02:10 AM 49.3°F9.6°C 48.5°F9.2°C 97% 2.8 mph W4.5 kmh W 7.8 mph12.6 kmh 29.62 in1003.0 mb 0.00 in0.0 mm 0.00 in/hr0.0 mm/hr 0.02 in0.5 mm
01:50 AM 49.4°F9.7°C 48.6°F9.2°C 97% 2.7 mph SE4.3 kmh SE 5.2 mph8.4 kmh 29.61 in1002.7 mb 0.00 in0.0 mm 0.00 in/hr0.0 mm/hr 0.02 in0.5 mm
01:40 AM 49.6°F9.8°C 48.7°F9.3°C 97% 2.6 mph SE4.2 kmh SE 5.2 mph8.4 kmh 29.61 in1002.7 mb 0.00 in0.0 mm 0.00 in/hr0.0 mm/hr 0.02 in0.5 mm
01:30 AM 49.5°F9.7°C 48.7°F9.3°C 97% 2.4 mph W3.9 kmh W 6.5 mph10.5 kmh 29.62 in1003.0 mb 0.01 in0.3 mm 0.06 in/hr1.5 mm/hr 0.02 in0.5 mm
01:20 AM 49.6°F9.8°C 48.8°F9.3°C 97% 2.3 mph ESE3.7 kmh ESE 7.8 mph12.6 kmh 29.62 in1003.0 mb 0.00 in0.0 mm 0.00 in/hr0.0 mm/hr 0.01 in0.3 mm
01:10 AM 49.7°F9.8°C 48.8°F9.3°C 97% 3.1 mph NW5.0 kmh NW 7.8 mph12.6 kmh 29.61 in1002.7 mb 0.01 in0.3 mm 0.06 in/hr1.5 mm/hr 0.01 in0.3 mm
01:00 AM 49.7°F9.8°C 48.9°F9.4°C 97% 2.4 mph NNW3.9 kmh NNW 5.2 mph8.4 kmh 29.62 in1003.0 mb 0.00 in0.0 mm 0.00 in/hr0.0 mm/hr 0.00 in0.0 mm
12:40 AM 49.7°F9.8°C 48.9°F9.4°C 97% 2.0 mph W3.2 kmh W 5.2 mph8.4 kmh 29.61 in1002.7 mb 0.00 in0.0 mm 0.00 in/hr0.0 mm/hr 0.00 in0.0 mm
12:20 AM 49.8°F9.9°C 48.9°F9.4°C 97% 3.2 mph WNW5.1 kmh WNW 6.5 mph10.5 kmh 29.61 in1002.7 mb 0.00 in0.0 mm 0.00 in/hr0.0 mm/hr 0.00 in0.0 mm
12:10 AM 49.8°F9.9°C 49.0°F9.4°C 97% 2.4 mph NW3.9 kmh NW 5.2 mph8.4 kmh 29.62 in1003.0 mb 0.00 in0.0 mm 0.00 in/hr0.0 mm/hr 0.00 in0.0 mm
12:00 AM 49.9°F9.9°C 49.1°F9.5°C 97% 2.4 mph S3.9 kmh S 5.2 mph8.4 kmh 29.62 in1003.0 mb 0.00 in0.0 mm 0.00 in/hr0.0 mm/hr 0.00 in0.0 mm